createdAt,value
2018-03-15T06:23:59.071Z,45.61
2018-03-15T06:26:25.459Z,45.64
2018-03-15T06:28:51.615Z,44.27
2018-03-15T06:31:17.819Z,44.36
2018-03-15T06:33:43.987Z,44.32
2018-03-15T06:36:10.105Z,43.91
2018-03-15T06:38:36.246Z,43.74
2018-03-15T06:41:02.403Z,43.85
2018-03-15T06:43:28.610Z,43.47
2018-03-15T06:45:54.760Z,43.61
2018-03-15T06:48:20.901Z,43.82
2018-03-15T06:50:47.054Z,43.86
2018-03-15T06:53:13.213Z,43.60
2018-03-15T06:55:39.372Z,43.54
2018-03-15T06:58:06.280Z,42.81
2018-03-15T07:00:32.469Z,43.31
2018-03-15T07:02:58.605Z,42.79
2018-03-15T07:05:24.915Z,43.56
2018-03-15T07:07:51.142Z,43.10
2018-03-15T07:10:17.285Z,43.46
2018-03-15T07:12:43.475Z,42.93
2018-03-15T07:15:09.691Z,42.92
2018-03-15T07:17:35.912Z,42.83
2018-03-15T07:20:02.135Z,43.39
2018-03-15T07:22:28.333Z,43.59
2018-03-15T07:24:54.786Z,43.19
2018-03-15T07:27:21.009Z,43.04
2018-03-15T07:29:47.325Z,43.00
2018-03-15T07:32:13.555Z,42.61
2018-03-15T07:34:39.877Z,43.03
2018-03-15T07:37:06.041Z,43.26
2018-03-15T07:39:32.257Z,43.05
2018-03-15T07:41:58.451Z,43.03
2018-03-15T07:44:24.616Z,43.24
2018-03-15T07:46:50.769Z,43.23
2018-03-15T07:49:16.970Z,43.13
2018-03-15T07:51:43.247Z,43.50
2018-03-15T07:54:09.366Z,43.75
2018-03-15T07:56:35.632Z,43.68
2018-03-15T07:59:01.832Z,43.46
2018-03-15T08:01:28.125Z,43.90
2018-03-15T08:03:54.391Z,43.58
2018-03-15T08:06:20.604Z,43.84
2018-03-15T08:08:46.864Z,44.18
2018-03-15T08:11:13.046Z,44.99
2018-03-15T08:13:39.189Z,43.94
2018-03-15T08:16:05.343Z,44.17
2018-03-15T08:18:31.621Z,43.85
2018-03-15T08:20:57.757Z,43.49
2018-03-15T08:23:23.919Z,43.38
2018-03-15T08:25:50.119Z,43.43
2018-03-15T08:28:17.203Z,43.04
2018-03-15T08:30:43.368Z,43.03
2018-03-15T08:33:09.491Z,43.23
2018-03-15T08:35:35.814Z,43.52
2018-03-15T08:38:02.064Z,43.50
2018-03-15T08:40:28.257Z,43.81
2018-03-15T08:42:54.495Z,43.25
2018-03-15T08:45:20.869Z,43.90
2018-03-15T08:47:47.119Z,43.85
2018-03-15T08:50:13.258Z,43.45
2018-03-15T08:52:39.456Z,43.35
2018-03-15T08:55:05.565Z,43.52
2018-03-15T08:57:31.768Z,43.33
2018-03-15T08:59:57.925Z,43.31
2018-03-15T09:02:24.077Z,43.27
2018-03-15T09:04:50.368Z,43.41
2018-03-15T09:07:16.445Z,42.94
2018-03-15T09:09:43.449Z,43.38
2018-03-15T09:12:09.899Z,43.59
2018-03-15T09:14:36.609Z,43.34
2018-03-15T09:17:03.356Z,44.09
2018-03-15T09:19:29.846Z,44.01
2018-03-15T09:21:56.267Z,44.02
2018-03-15T09:24:22.766Z,44.25
2018-03-15T09:26:49.167Z,44.28
2018-03-15T09:29:15.351Z,44.17
2018-03-15T09:31:41.873Z,44.55
2018-03-15T09:34:08.698Z,44.61
2018-03-15T09:36:36.156Z,44.51
2018-03-15T09:39:05.982Z,44.59
2018-03-15T09:41:36.487Z,44.74
2018-03-15T09:44:02.906Z,44.67
2018-03-15T09:46:29.745Z,44.80
2018-03-15T09:48:56.232Z,44.88
2018-03-15T09:51:22.921Z,44.91
2018-03-15T09:53:49.450Z,44.96
2018-03-15T09:56:16.527Z,44.67
2018-03-15T09:58:44.636Z,44.90
2018-03-15T10:01:11.164Z,44.89
2018-03-15T10:03:37.527Z,44.99
2018-03-15T10:06:04.126Z,44.82
2018-03-15T10:08:47.620Z,44.96
2018-03-15T10:31:54.039Z,44.76
2018-03-15T10:34:20.254Z,44.67
2018-03-15T10:36:46.532Z,44.50
2018-03-15T10:39:12.858Z,44.38
2018-03-15T10:41:39.176Z,44.36
2018-03-15T10:44:05.438Z,44.24
2018-03-15T10:46:31.741Z,44.56
2018-03-15T10:48:58.149Z,44.40
2018-03-15T10:51:24.485Z,44.37
2018-03-15T10:53:50.850Z,44.07
2018-03-15T10:56:17.147Z,44.55
2018-03-15T10:58:43.403Z,44.75
2018-03-15T11:01:09.653Z,44.32
2018-03-15T11:03:36.143Z,44.30
2018-03-15T11:06:02.409Z,44.29
2018-03-15T11:08:28.816Z,44.29
2018-03-15T11:10:55.130Z,44.08
2018-03-15T11:13:21.520Z,44.01
2018-03-15T11:15:47.806Z,44.15
2018-03-15T11:18:14.039Z,44.23
2018-03-15T11:20:40.305Z,44.08
2018-03-15T11:23:06.528Z,44.13
2018-03-15T11:25:32.777Z,44.17
2018-03-15T11:27:59.026Z,44.86
2018-03-15T11:30:33.132Z,44.85
2018-03-15T11:32:59.366Z,44.44
2018-03-15T11:35:25.646Z,44.46
2018-03-15T11:37:51.987Z,44.36
2018-03-15T11:51:00.166Z,44.17
2018-03-15T11:53:26.493Z,44.38
2018-03-15T11:55:52.913Z,45.14
2018-03-15T11:58:19.167Z,44.25
2018-03-15T12:11:26.610Z,44.65
2018-03-15T12:13:54.917Z,44.71
2018-03-15T12:16:21.081Z,44.45
2018-03-15T12:18:47.343Z,44.44
2018-03-15T12:21:13.611Z,44.54
2018-03-15T12:23:39.822Z,45.09
2018-03-15T12:26:06.019Z,44.66
2018-03-15T12:28:32.252Z,44.40
2018-03-15T12:30:58.495Z,44.46
2018-03-15T12:33:24.815Z,44.67
2018-03-15T12:35:51.039Z,44.38
2018-03-15T12:38:18.362Z,44.37
2018-03-15T12:40:51.970Z,44.41
2018-03-15T12:43:18.470Z,44.54
2018-03-15T12:45:46.729Z,45.12
2018-03-15T12:53:55.744Z,43.98
2018-03-15T16:37:40.830Z,45.43
2018-03-15T16:40:07.166Z,45.49
2018-03-15T16:42:33.561Z,45.58
2018-03-15T16:44:59.887Z,45.53
2018-03-15T16:47:26.229Z,46.23
2018-03-15T16:50:21.951Z,41.64
2018-03-15T16:54:41.862Z,45.50
2018-03-15T16:57:08.208Z,45.68
2018-03-15T16:59:34.591Z,45.68
2018-03-15T17:02:00.955Z,45.67
2018-03-15T17:04:27.338Z,45.58
2018-03-15T17:06:53.710Z,45.68
2018-03-15T17:09:20.139Z,45.74
2018-03-15T17:11:46.478Z,45.96
2018-03-15T17:14:12.861Z,45.85
2018-03-15T17:16:39.199Z,45.81
2018-03-15T17:19:05.577Z,45.97
2018-03-15T17:21:32.000Z,46.01
2018-03-15T17:23:58.340Z,45.99
2018-03-15T17:26:24.809Z,45.80
2018-03-15T17:28:51.228Z,45.70
2018-03-15T17:31:17.623Z,45.54
2018-03-15T17:33:43.981Z,45.73
2018-03-15T17:36:10.478Z,45.71
2018-03-15T17:38:36.815Z,45.80
2018-03-15T17:41:03.168Z,45.84
2018-03-15T17:43:29.558Z,45.80
2018-03-15T17:45:55.963Z,45.93
2018-03-15T17:48:22.337Z,45.94
2018-03-15T17:50:48.703Z,46.03
2018-03-15T17:53:15.093Z,46.01
2018-03-15T17:55:41.469Z,46.05
2018-03-15T17:58:07.846Z,46.10
2018-03-15T18:00:34.197Z,46.13
2018-03-15T18:03:00.573Z,46.14
2018-03-15T18:05:27.024Z,46.17
2018-03-15T18:07:53.366Z,46.27
2018-03-15T18:10:19.697Z,46.12
2018-03-15T18:12:46.041Z,46.04
2018-03-15T18:15:12.378Z,45.86
2018-03-15T18:17:38.810Z,45.68
2018-03-15T18:20:05.156Z,45.55
2018-03-15T18:22:31.481Z,45.39
2018-03-15T18:24:57.811Z,45.24
2018-03-15T18:27:24.177Z,45.07
2018-03-15T18:29:50.552Z,44.96
2018-03-15T18:32:16.930Z,44.86
2018-03-15T18:34:43.271Z,44.80
2018-03-15T18:37:09.699Z,44.85
2018-03-15T18:39:36.039Z,44.65
2018-03-15T18:42:02.503Z,44.53
2018-03-15T18:44:28.831Z,44.36
2018-03-15T18:46:55.187Z,44.32
2018-03-15T18:49:21.526Z,44.36
2018-03-15T18:51:47.942Z,44.36
2018-03-15T18:54:14.325Z,44.26
2018-03-15T18:56:40.698Z,44.12
2018-03-15T18:59:07.051Z,43.94
2018-03-15T19:01:33.395Z,43.95
2018-03-15T19:03:59.722Z,43.94
2018-03-15T19:06:26.188Z,43.97
2018-03-15T19:08:52.524Z,43.88
2018-03-15T19:11:18.862Z,43.79
2018-03-15T19:13:45.202Z,43.66
2018-03-15T19:16:11.541Z,43.67
2018-03-15T19:18:37.929Z,43.61
2018-03-15T19:21:04.279Z,43.60
2018-03-15T19:23:30.649Z,43.59
2018-03-15T19:25:57.022Z,43.51
2018-03-15T19:28:23.402Z,43.42
2018-03-15T19:30:49.753Z,43.33
2018-03-15T19:33:16.135Z,43.39
2018-03-15T19:35:42.525Z,43.38
2018-03-15T19:38:08.863Z,43.29
2018-03-15T19:40:35.320Z,43.29
2018-03-15T19:43:01.701Z,43.20
2018-03-15T19:45:28.058Z,43.09
2018-03-15T19:47:54.437Z,43.06
2018-03-15T19:50:20.912Z,43.06
2018-03-15T19:52:47.245Z,43.06
2018-03-15T19:55:13.632Z,43.02
2018-03-15T19:57:40.042Z,42.93
2018-03-15T20:00:06.379Z,42.81
2018-03-15T20:02:32.710Z,42.83
2018-03-15T20:04:59.051Z,42.82
2018-03-15T20:07:25.397Z,42.81
2018-03-15T20:09:51.740Z,42.77
2018-03-15T20:12:18.144Z,42.79
2018-03-15T20:14:44.498Z,42.72
2018-03-15T20:17:10.865Z,42.65
2018-03-15T20:19:37.213Z,42.61
2018-03-15T20:22:03.654Z,42.67
2018-03-15T20:24:29.988Z,42.60
2018-03-15T20:26:56.391Z,42.61
2018-03-15T20:29:22.785Z,42.57
2018-03-15T20:31:49.180Z,42.53
2018-03-15T20:34:15.558Z,42.47
2018-03-15T20:36:41.920Z,42.46
2018-03-15T20:39:08.246Z,42.48
2018-03-15T20:41:34.619Z,42.37
2018-03-15T20:44:00.971Z,42.33
2018-03-15T20:46:27.354Z,42.36
2018-03-15T20:48:53.728Z,42.28
2018-03-15T20:51:20.126Z,42.27
2018-03-15T20:53:46.465Z,42.30
2018-03-15T20:56:12.838Z,42.33
2018-03-15T20:58:39.306Z,42.31
2018-03-15T21:01:05.711Z,42.29
2018-03-15T21:03:32.076Z,42.21
2018-03-15T21:05:58.441Z,42.13
2018-03-15T21:08:24.841Z,42.07
2018-03-15T21:10:51.371Z,42.13
2018-03-15T21:13:17.962Z,42.16
2018-03-15T21:15:44.310Z,42.18
2018-03-15T21:18:10.649Z,42.26
2018-03-15T21:20:37.029Z,42.27
2018-03-15T21:23:03.457Z,42.41
2018-03-15T21:25:29.791Z,42.45
2018-03-15T21:27:56.269Z,42.54
2018-03-15T21:30:22.622Z,42.67
2018-03-15T21:32:49.025Z,42.64
2018-03-15T21:35:15.354Z,42.67
2018-03-15T21:40:14.194Z,42.71
2018-03-15T21:42:40.606Z,42.72
2018-03-15T21:45:06.948Z,42.73
2018-03-15T21:47:33.333Z,42.67
2018-03-15T21:49:59.664Z,42.70
2018-03-15T21:52:25.993Z,42.75
2018-03-15T21:54:52.370Z,42.85
2018-03-15T21:57:18.742Z,42.84
2018-03-15T21:59:45.072Z,42.88
2018-03-15T22:02:11.437Z,42.88
2018-03-15T22:04:37.778Z,42.85
2018-03-15T22:07:04.165Z,42.91
2018-03-15T22:09:30.512Z,43.00
2018-03-15T22:11:56.849Z,43.05
2018-03-15T22:14:23.179Z,43.11
2018-03-15T22:16:49.564Z,43.13
2018-03-15T22:19:15.902Z,43.07
2018-03-15T22:21:42.294Z,43.07
2018-03-15T22:24:08.682Z,43.08
2018-03-15T22:26:35.011Z,43.21
2018-03-15T22:29:01.353Z,43.24
2018-03-15T22:31:27.697Z,43.26
2018-03-15T22:33:54.065Z,43.26
2018-03-15T22:36:20.386Z,43.19
2018-03-15T22:38:46.766Z,43.23
2018-03-15T22:41:13.137Z,43.31
2018-03-15T22:43:39.461Z,43.31
2018-03-15T22:46:05.858Z,43.34
2018-03-15T22:48:32.299Z,43.43
2018-03-15T22:50:58.649Z,43.41
2018-03-15T22:53:25.059Z,43.36
2018-03-15T22:55:51.446Z,43.34
2018-03-15T22:58:17.785Z,43.36
2018-03-15T23:00:44.172Z,43.46
2018-03-15T23:03:10.530Z,43.43
2018-03-15T23:05:36.859Z,43.41
2018-03-15T23:08:03.281Z,43.36
2018-03-15T23:10:29.607Z,43.29
2018-03-15T23:12:55.965Z,43.36
2018-03-15T23:15:22.385Z,43.50
2018-03-15T23:17:48.730Z,43.47
2018-03-15T23:20:15.115Z,43.50
2018-03-15T23:22:41.490Z,43.50
2018-03-15T23:25:07.828Z,43.41
2018-03-15T23:27:34.168Z,43.37
2018-03-15T23:30:00.557Z,43.35
2018-03-15T23:32:26.891Z,43.46
2018-03-15T23:34:53.262Z,43.46
2018-03-15T23:37:19.648Z,43.50
2018-03-15T23:39:46.057Z,43.44
2018-03-15T23:42:12.417Z,43.47
2018-03-15T23:44:38.794Z,43.45
2018-03-15T23:47:05.130Z,43.44
2018-03-15T23:49:31.520Z,43.54
2018-03-15T23:51:57.918Z,43.65
2018-03-15T23:54:24.277Z,43.63
2018-03-15T23:56:50.683Z,43.54
2018-03-15T23:59:17.026Z,43.54
